Time,TemperatureF,DewpointF,PressureIn,WindDirection,WindDirectionDegrees,WindSpeedMPH,WindSpeedGustMPH,Humidity,HourlyPrecipIn,Conditions,Clouds,dailyrainin,SolarRadiationWatts/m^2,SoftwareType,DateUTC
2013-04-12 00:11:00,32.0,24.0,-100.00,NW,309,8.0,10.0,72,0.00,,,0.00,0.000000,,2013-04-12 07:11:00,
2013-04-12 00:22:00,32.0,24.0,-100.00,NW,309,8.0,10.0,72,0.00,,,0.00,0.000000,,2013-04-12 07:22:00,
2013-04-12 00:32:00,32.0,24.0,-100.00,NW,309,8.0,10.0,72,0.00,,,0.00,0.000000,,2013-04-12 07:32:00,
2013-04-12 00:42:00,32.0,24.0,-100.00,NW,309,8.0,10.0,72,0.00,,,0.00,0.000000,,2013-04-12 07:42:00,
2013-04-12 01:12:00,32.0,24.0,-100.00,NW,316,7.0,9.0,71,0.00,,,0.00,0.000000,,2013-04-12 08:12:00,
2013-04-12 01:22:00,32.0,24.0,-100.00,NW,316,7.0,9.0,71,0.00,,,0.00,0.000000,,2013-04-12 08:22:00,
2013-04-12 01:32:00,32.0,24.0,-100.00,NW,316,7.0,9.0,71,0.00,,,0.00,0.000000,,2013-04-12 08:32:00,
2013-04-12 01:42:00,32.0,24.0,-100.00,NW,316,7.0,9.0,71,0.00,,,0.00,0.000000,,2013-04-12 08:42:00,
2013-04-12 02:12:00,33.0,25.0,-100.00,NW,316,6.0,8.0,72,0.00,,,0.00,0.000000,,2013-04-12 09:12:00,
2013-04-12 02:22:00,33.0,25.0,-100.00,NW,316,6.0,8.0,72,0.00,,,0.00,0.000000,,2013-04-12 09:22:00,
2013-04-12 02:32:00,33.0,25.0,-100.00,NW,316,6.0,8.0,72,0.00,,,0.00,0.000000,,2013-04-12 09:32:00,
2013-04-12 02:43:00,33.0,25.0,-100.00,NW,316,6.0,8.0,72,0.00,,,0.00,0.000000,,2013-04-12 09:43:00,
2013-04-12 03:12:00,32.0,24.0,-100.00,NW,315,6.0,9.0,72,0.00,,,0.00,0.000000,,2013-04-12 10:12:00,
2013-04-12 03:22:00,32.0,24.0,-100.00,NW,315,6.0,9.0,72,0.00,,,0.00,0.000000,,2013-04-12 10:22:00,
2013-04-12 03:33:00,32.0,24.0,-100.00,NW,315,6.0,9.0,72,0.00,,,0.00,0.000000,,2013-04-12 10:33:00,
2013-04-12 03:42:00,32.0,24.0,-100.00,NW,315,6.0,9.0,72,0.00,,,0.00,0.000000,,2013-04-12 10:42:00,
2013-04-12 04:12:00,32.0,25.0,-100.00,NNW,332,7.0,9.0,74,0.00,,,0.00,0.000000,,2013-04-12 11:12:00,
2013-04-12 04:22:00,32.0,25.0,-100.00,NNW,332,7.0,9.0,74,0.00,,,0.00,0.000000,,2013-04-12 11:22:00,
2013-04-12 04:32:00,32.0,25.0,-100.00,NNW,332,7.0,9.0,74,0.00,,,0.00,0.000000,,2013-04-12 11:32:00,
2013-04-12 04:42:00,32.0,25.0,-100.00,NNW,332,7.0,9.0,74,0.00,,,0.00,0.000000,,2013-04-12 11:42:00,
2013-04-12 05:12:00,32.0,25.0,-100.00,NNW,336,7.0,10.0,74,0.00,,,0.00,0.000000,,2013-04-12 12:12:00,
2013-04-12 05:22:00,32.0,25.0,-100.00,NNW,336,7.0,10.0,74,0.00,,,0.00,0.000000,,2013-04-12 12:22:00,
2013-04-12 05:32:00,32.0,25.0,-100.00,NNW,336,7.0,10.0,74,0.00,,,0.00,0.000000,,2013-04-12 12:32:00,
2013-04-12 05:42:00,32.0,25.0,-100.00,NNW,336,7.0,10.0,74,0.00,,,0.00,0.000000,,2013-04-12 12:42:00,
2013-04-12 06:12:00,32.0,24.0,-100.00,NNW,340,7.0,8.0,73,0.00,,,0.00,0.000000,,2013-04-12 13:12:00,
2013-04-12 06:22:00,32.0,24.0,-100.00,NNW,340,7.0,8.0,73,0.00,,,0.00,0.000000,,2013-04-12 13:22:00,
2013-04-12 06:32:00,32.0,24.0,-100.00,NNW,340,7.0,8.0,73,0.00,,,0.00,0.000000,,2013-04-12 13:32:00,
2013-04-12 06:42:00,32.0,24.0,-100.00,NNW,340,7.0,8.0,73,0.00,,,0.00,0.000000,,2013-04-12 13:42:00,
2013-04-12 07:12:00,32.0,23.0,-100.00,NNW,335,4.0,8.0,68,0.00,,,0.00,0.000000,,2013-04-12 14:12:00,
2013-04-12 07:22:00,32.0,23.0,-100.00,NNW,335,4.0,8.0,68,0.00,,,0.00,0.000000,,2013-04-12 14:22:00,
2013-04-12 07:32:00,32.0,23.0,-100.00,NNW,335,4.0,8.0,68,0.00,,,0.00,0.000000,,2013-04-12 14:32:00,
2013-04-12 07:42:00,32.0,23.0,-100.00,NNW,335,4.0,8.0,68,0.00,,,0.00,0.000000,,2013-04-12 14:42:00,
2013-04-12 08:12:00,38.0,27.0,-100.00,NW,312,4.0,5.0,65,0.00,,,-99.99,46.000000,,2013-04-12 15:12:00,
2013-04-12 08:22:00,38.0,27.0,-100.00,NW,312,4.0,5.0,65,0.00,,,-99.99,46.000000,,2013-04-12 15:22:00,
2013-04-12 08:33:00,38.0,27.0,-100.00,NW,312,4.0,5.0,65,0.00,,,-99.99,46.000000,,2013-04-12 15:33:00,
2013-04-12 08:43:00,38.0,27.0,-100.00,NW,312,4.0,5.0,65,0.00,,,-99.99,46.000000,,2013-04-12 15:43:00,
2013-04-12 09:13:00,44.0,26.0,-100.00,NNE,24,0.0,5.0,49,0.00,,,-99.99,119.000000,,2013-04-12 16:13:00,
2013-04-12 09:22:00,44.0,26.0,-100.00,NNE,24,0.0,5.0,49,0.00,,,-99.99,119.000000,,2013-04-12 16:22:00,
2013-04-12 10:12:00,42.0,27.0,-100.00,SSE,158,6.0,10.0,54,0.00,,,0.00,256.000000,,2013-04-12 17:12:00,
2013-04-12 10:22:00,42.0,27.0,-100.00,SSE,158,6.0,10.0,54,0.00,,,0.00,256.000000,,2013-04-12 17:22:00,
2013-04-12 10:33:00,42.0,27.0,-100.00,SSE,158,6.0,10.0,54,0.00,,,0.00,256.000000,,2013-04-12 17:33:00,
2013-04-12 10:44:00,42.0,27.0,-100.00,SSE,158,6.0,10.0,54,0.00,,,0.00,256.000000,,2013-04-12 17:44:00,
2013-04-12 11:15:00,46.0,28.0,-100.00,South,173,7.0,12.0,49,0.00,,,0.00,313.000000,,2013-04-12 18:15:00,
2013-04-12 11:29:00,46.0,28.0,-100.00,South,173,7.0,12.0,49,0.00,,,0.00,313.000000,,2013-04-12 18:29:00,
2013-04-12 12:26:00,48.0,25.0,-100.00,South,185,12.0,20.0,41,0.00,,,0.00,443.000000,,2013-04-12 19:26:00,
2013-04-12 12:32:00,48.0,25.0,-100.00,South,185,12.0,20.0,41,0.00,,,0.00,443.000000,,2013-04-12 19:32:00,
2013-04-12 12:42:00,48.0,25.0,-100.00,South,185,12.0,20.0,41,0.00,,,0.00,443.000000,,2013-04-12 19:42:00,
2013-04-12 13:12:00,48.0,26.0,-100.00,SSW,197,12.0,19.0,42,0.00,,,0.00,355.000000,,2013-04-12 20:12:00,
2013-04-12 13:22:00,48.0,26.0,-100.00,SSW,197,12.0,19.0,42,0.00,,,0.00,355.000000,,2013-04-12 20:22:00,
2013-04-12 13:32:00,48.0,26.0,-100.00,SSW,197,12.0,19.0,42,0.00,,,0.00,355.000000,,2013-04-12 20:32:00,
2013-04-12 13:42:00,48.0,26.0,-100.00,SSW,197,12.0,19.0,42,0.00,,,0.00,355.000000,,2013-04-12 20:42:00,
2013-04-12 14:12:00,47.0,28.0,-100.00,South,185,11.0,17.0,48,0.00,,,-99.99,200.000000,,2013-04-12 21:12:00,
2013-04-12 14:22:00,47.0,28.0,-100.00,South,185,11.0,17.0,48,0.00,,,-99.99,200.000000,,2013-04-12 21:22:00,
2013-04-12 14:32:00,47.0,28.0,-100.00,South,185,11.0,17.0,48,0.00,,,-99.99,200.000000,,2013-04-12 21:32:00,
2013-04-12 14:42:00,47.0,28.0,-100.00,South,185,11.0,17.0,48,0.00,,,-99.99,200.000000,,2013-04-12 21:42:00,
2013-04-12 15:12:00,46.0,27.0,-100.00,South,190,10.0,17.0,48,0.00,,,0.00,174.000000,,2013-04-12 22:12:00,
2013-04-12 15:22:00,46.0,27.0,-100.00,South,190,10.0,17.0,48,0.00,,,0.00,174.000000,,2013-04-12 22:22:00,
2013-04-12 15:32:00,46.0,27.0,-100.00,South,190,10.0,17.0,48,0.00,,,0.00,174.000000,,2013-04-12 22:32:00,
2013-04-12 15:42:00,46.0,27.0,-100.00,South,190,10.0,17.0,48,0.00,,,0.00,174.000000,,2013-04-12 22:42:00,
2013-04-12 16:12:00,48.0,30.0,-100.00,SSW,213,12.0,19.0,49,0.00,,,0.00,197.000000,,2013-04-12 23:12:00,
2013-04-12 16:22:00,48.0,30.0,-100.00,SSW,213,12.0,19.0,49,0.00,,,0.00,197.000000,,2013-04-12 23:22:00,
2013-04-12 16:32:00,48.0,30.0,-100.00,SSW,213,12.0,19.0,49,0.00,,,0.00,197.000000,,2013-04-12 23:32:00,
2013-04-12 16:42:00,48.0,30.0,-100.00,SSW,213,12.0,19.0,49,0.00,,,0.00,197.000000,,2013-04-12 23:42:00,
2013-04-12 17:12:00,45.0,30.0,-100.00,SSW,211,9.0,19.0,55,0.00,,,0.00,169.000000,,2013-04-13 00:12:00,
2013-04-12 17:22:00,45.0,30.0,-100.00,SSW,211,9.0,19.0,55,0.00,,,0.00,169.000000,,2013-04-13 00:22:00,
2013-04-12 17:32:00,45.0,30.0,-100.00,SSW,211,9.0,19.0,55,0.00,,,0.00,169.000000,,2013-04-13 00:32:00,
2013-04-12 17:42:00,45.0,30.0,-100.00,SSW,211,9.0,19.0,55,0.00,,,0.00,169.000000,,2013-04-13 00:42:00,
2013-04-12 18:12:00,44.0,32.0,-100.00,WSW,248,9.0,15.0,62,0.00,,,0.00,10.000000,,2013-04-13 01:12:00,
2013-04-12 18:22:00,44.0,32.0,-100.00,WSW,248,9.0,15.0,62,0.00,,,0.00,10.000000,,2013-04-13 01:22:00,
2013-04-12 18:32:00,44.0,32.0,-100.00,WSW,248,9.0,15.0,62,0.00,,,0.00,10.000000,,2013-04-13 01:32:00,
2013-04-12 18:42:00,44.0,32.0,-100.00,WSW,248,9.0,15.0,62,0.00,,,0.00,10.000000,,2013-04-13 01:42:00,
2013-04-12 19:12:00,44.0,34.0,-100.00,West,265,10.0,14.0,67,0.00,,,0.00,7.000000,,2013-04-13 02:12:00,
2013-04-12 19:22:00,44.0,34.0,-100.00,West,265,10.0,14.0,67,0.00,,,0.00,7.000000,,2013-04-13 02:22:00,
2013-04-12 19:32:00,44.0,34.0,-100.00,West,265,10.0,14.0,67,0.00,,,0.00,7.000000,,2013-04-13 02:32:00,
2013-04-12 19:42:00,44.0,34.0,-100.00,West,265,10.0,14.0,67,0.00,,,0.00,7.000000,,2013-04-13 02:42:00,
2013-04-12 20:12:00,39.0,30.0,-100.00,WSW,246,10.0,17.0,71,0.00,,,0.00,0.000000,,2013-04-13 03:12:00,
2013-04-12 20:22:00,39.0,30.0,-100.00,WSW,246,10.0,17.0,71,0.00,,,0.00,0.000000,,2013-04-13 03:22:00,
2013-04-12 20:33:00,39.0,30.0,-100.00,WSW,246,10.0,17.0,71,0.00,,,0.00,0.000000,,2013-04-13 03:33:00,
2013-04-12 20:42:00,39.0,30.0,-100.00,WSW,246,10.0,17.0,71,0.00,,,0.00,0.000000,,2013-04-13 03:42:00,
2013-04-12 21:12:00,35.0,31.0,-100.00,SW,224,0.0,14.0,84,0.00,,,0.00,0.000000,,2013-04-13 04:12:00,
2013-04-12 21:23:00,35.0,31.0,-100.00,SW,224,0.0,14.0,84,0.00,,,0.00,0.000000,,2013-04-13 04:23:00,
2013-04-12 21:33:00,35.0,31.0,-100.00,SW,224,0.0,14.0,84,0.00,,,0.00,0.000000,,2013-04-13 04:33:00,
2013-04-12 21:42:00,35.0,31.0,-100.00,SW,224,0.0,14.0,84,0.00,,,0.00,0.000000,,2013-04-13 04:42:00,
2013-04-12 22:12:00,36.0,32.0,-100.00,SSE,150,0.0,4.0,86,0.00,,,0.00,0.000000,,2013-04-13 05:12:00,
2013-04-12 22:22:00,36.0,32.0,-100.00,SSE,150,0.0,4.0,86,0.00,,,0.00,0.000000,,2013-04-13 05:22:00,
2013-04-12 22:32:00,36.0,32.0,-100.00,SSE,150,0.0,4.0,86,0.00,,,0.00,0.000000,,2013-04-13 05:32:00,
2013-04-12 22:42:00,36.0,32.0,-100.00,SSE,150,0.0,4.0,86,0.00,,,0.00,0.000000,,2013-04-13 05:42:00,
2013-04-12 23:12:00,33.0,30.0,-100.00,SSE,158,9.0,11.0,87,0.00,,,0.00,0.000000,,2013-04-13 06:12:00,
2013-04-12 23:23:00,33.0,30.0,-100.00,SSE,158,9.0,11.0,87,0.00,,,0.00,0.000000,,2013-04-13 06:23:00,
2013-04-12 23:34:00,33.0,30.0,-100.00,SSE,158,9.0,11.0,87,0.00,,,0.00,0.000000,,2013-04-13 06:34:00,
2013-04-12 23:43:00,33.0,30.0,-100.00,SSE,158,9.0,11.0,87,0.00,,,0.00,0.000000,,2013-04-13 06:43:00,